Bookmark and Share
Track history (hours):
 

Front Runner

Last reported at 2014-Apr-20 18:13 UTC. Time now 2014-Apr-20 19:09 UTC.
Position N 35°50' W 006°00'.

Length 190 m; draft 12 m.

Type: Cargo ship. MMSI: 357941000.

NotesDate/timePositionNaut miles runAvg speedWind from/ knotsBaromVisibWave heightAir tempDewpointWater temp
2014-Apr-20 18:13N 35°50' W 006°00'6 8.4
2014-Apr-20 17:33N 35°54' W 005°56'9 8.5
2014-Apr-20 16:29N 35°57' W 005°45'9 9.5
2014-Apr-20 15:33N 35°58' W 005°34'9 8.8
2014-Apr-20 14:33N 36°00' W 005°24'9 8.8
2014-Apr-20 13:33N 36°02' W 005°13'1211.4
2014-Apr-20 12:31N 36°04' W 004°59'176 9.7
2014-Apr-19 18:23N 36°32' W 001°23'11 9.0
2014-Apr-19 17:13N 36°33' W 001°10'6 8.9
2014-Apr-19 16:33N 36°34' W 001°02'6410.6
2014-Apr-19 10:33N 36°42' E 000°16'5210.3
2014-Apr-19 05:31N 36°50' E 001°20'2310.4
2014-Apr-19 03:17N 36°55' E 001°48'810.4
2014-Apr-19 02:33N 36°57' E 001°58'2110.5
2014-Apr-19 00:33N 36°59' E 002°24'1111.3
2014-Apr-18 23:33N 37°02' E 002°38'1311.8
2014-Apr-18 22:28N 37°05' E 002°54'1010.8
2014-Apr-18 21:33N 37°05' E 003°06'1611.0
2014-Apr-18 20:07N 37°05' E 003°26'610.5
2014-Apr-18 19:33N 37°04' E 003°33'1111.4
2014-Apr-18 18:32N 37°04' E 003°47'1111.2
2014-Apr-18 17:33N 37°05' E 004°01'1412.3
2014-Apr-18 16:27N 37°06' E 004°18'1211.6
2014-Apr-18 15:23N 37°07' E 004°34'1113.0
2014-Apr-18 14:32N 37°08' E 004°47'2511.8
2014-Apr-18 12:26N 37°10' E 005°18'28710.7
2014-Apr-17 09:33N 37°23' E 011°19'12 9.8
2014-Apr-17 08:17N 37°17' E 011°33'810.0
2014-Apr-17 07:31N 37°14' E 011°41'1310.4
2014-Apr-17 06:15N 37°07' E 011°55'2910.9
2014-Apr-17 03:33N 36°58' E 012°30'5511.1
2014-Apr-16 22:33N 36°41' E 013°36'1111.1
2014-Apr-16 21:33N 36°38' E 013°50'1111.3
2014-Apr-16 20:33N 36°35' E 014°03'1211.8
2014-Apr-16 19:33N 36°31' E 014°17'1211.6
2014-Apr-16 18:33N 36°28' E 014°31'44110.3
2014-Apr-14 23:32N 36°48' E 023°40'2411.8
2014-Apr-14 21:31N 37°10' E 023°53'1212.1
2014-Apr-14 20:32N 37°21' E 023°59'1111.6
2014-Apr-14 19:34N 37°30' E 024°07'2411.8
2014-Apr-14 17:33N 37°49' E 024°25'3611.9
2014-Apr-14 14:32N 38°18' E 024°51'3511.7
2014-Apr-14 11:33N 38°50' E 025°10'7011.6
2014-Apr-14 05:32N 39°52' E 025°51'17111.1
2014-Apr-13 14:07N 41°15' E 029°08'7 8.7
2014-Apr-13 13:18N 41°22' E 029°08'2 3.0
2014-Apr-13 12:33N 41°25' E 029°08'0 0.3
2014-Apr-13 11:32N 41°24' E 029°08'19 9.4
2014-Apr-13 09:33N 41°33' E 029°30'25011.3
2014-Apr-12 11:25N 43°24' E 034°34'1111.2
2014-Apr-12 10:27N 43°29' E 034°47'1511.3
2014-Apr-12 09:09N 43°35' E 035°06'  

Dump ship's entire track history

sailing weather and tide predictions

Front Runner — 3FRP5 — position and weather